Time;durP1;ratioP1;P1;durP2;ratioP2;P2;SDS_P1;SDS_P2;PMS_P1;PMS_P2;Temp;Humidity;BMP_temperature;BMP_pressure;BME280_temperature;BME280_humidity;BME280_pressure;Samples;Min_cycle;Max_cycle;Signal;HPM_P1;HPM_P2
2022/11/10 00:00:07;;;;;;;;;;;;;;;;;;5109513;27;20403;-60
2022/11/10 00:02:51;;;;;;;;;;;;;;;;;;5109272;28;19978;-59
2022/11/10 00:05:36;;;;;;;;;;;;;;;;;;5107646;27;19943;-60
2022/11/10 00:08:20;;;;;;;;;;;;;;;;;;5106165;27;20000;-63
2022/11/10 00:11:05;;;;;;;;;;;;;;;;;;5109942;27;19919;-60
2022/11/10 00:17:05;;;;;;;;;;;;;;;;;;5110361;27;19984;-58
2022/11/10 00:19:50;;;;;;;;;;;;;;;;;;5104936;27;19922;-58
2022/11/10 00:22:34;;;;;;;;;;;;;;;;;;5109923;28;19918;-61
2022/11/10 00:25:18;;;;;;;;;;;;;;;;;;5108861;27;19918;-58
2022/11/10 00:28:02;;;;;;;;;;;;;;;;;;5105412;28;20336;-60
2022/11/10 00:30:47;;;;;;;;;;;;;;;;;;5100775;28;19926;-60
2022/11/10 00:33:31;;;;;;;;;;;;;;;;;;5101493;27;20023;-60
2022/11/10 00:36:15;;;;;;;;;;;;;;;;;;5099897;27;19927;-58
2022/11/10 00:38:59;;;;;;;;;;;;;;;;;;5106616;28;19965;-60
2022/11/10 00:41:42;;;;;;;;;;;;;;;;;;5095670;28;19919;-59
2022/11/10 00:44:27;;;;;;;;;;;;;;;;;;5105094;27;19920;-61
2022/11/10 00:47:11;;;;;;;;;;;;;;;;;;5103666;27;19919;-59
2022/11/10 00:49:56;;;;;;;;;;;;;;;;;;5101910;27;20447;-57
2022/11/10 00:52:40;;;;;;;;;;;;;;;;;;5095269;28;20368;-59
2022/11/10 00:55:24;;;;;;;;;;;;;;;;;;5097331;28;19927;-60
2022/11/10 00:58:08;;;;;;;;;;;;;;;;;;5101982;28;19919;-60
2022/11/10 01:00:52;;;;;;;;;;;;;;;;;;5109347;28;19971;-58
2022/11/10 01:03:36;;;;;;;;;;;;;;;;;;5106765;28;20171;-59
2022/11/10 01:06:20;;;;;;;;;;;;;;;;;;5097917;28;20556;-57
2022/11/10 01:09:04;;;;;;;;;;;;;;;;;;5104557;28;19922;-59
2022/11/10 01:11:48;;;;;;;;;;;;;;;;;;5108791;28;19980;-60
2022/11/10 01:14:32;;;;;;;;;;;;;;;;;;5109408;28;19933;-58
2022/11/10 01:17:17;;;;;;;;;;;;;;;;;;5110641;28;19927;-60
2022/11/10 01:20:01;;;;;;;;;;;;;;;;;;5105173;28;19919;-61
2022/11/10 01:22:45;;;;;;;;;;;;;;;;;;5102261;28;20376;-60
2022/11/10 01:25:29;;;;;;;;;;;;;;;;;;5101963;28;20431;-58
2022/11/10 01:28:13;;;;;;;;;;;;;;;;;;5103003;27;19961;-59
2022/11/10 01:30:57;;;;;;;;;;;;;;;;;;5071336;28;20393;-60
2022/11/10 01:33:41;;;;;;;;;;;;;;;;;;5070015;28;19927;-60
2022/11/10 01:36:25;;;;;;;;;;;;;;;;;;5073725;28;19955;-62
2022/11/10 01:39:10;;;;;;;;;;;;;;;;;;5073384;28;19919;-56
2022/11/10 01:41:54;;;;;;;;;;;;;;;;;;5071713;28;19959;-59
2022/11/10 01:44:38;;;;;;;;;;;;;;;;;;5074599;28;20317;-60
2022/11/10 01:47:22;;;;;;;;;;;;;;;;;;5067669;28;19920;-59
2022/11/10 01:50:06;;;;;;;;;;;;;;;;;;5068797;28;19923;-58
2022/11/10 01:52:50;;;;;;;;;;;;;;;;;;5069029;28;19919;-59
2022/11/10 01:55:34;;;;;;;;;;;;;;;;;;5070999;28;19961;-58
2022/11/10 01:58:19;;;;;;;;;;;;;;;;;;5068481;28;19951;-59
2022/11/10 02:01:03;;;;;;;;;;;;;;;;;;5070710;28;19923;-59
2022/11/10 02:03:48;;;;;;;;;;;;;;;;;;5067201;28;20011;-59
2022/11/10 02:06:32;;;;;;;;;;;;;;;;;;5071132;28;19932;-59
2022/11/10 02:09:16;;;;;;;;;;;;;;;;;;5068763;28;19919;-59
2022/11/10 02:12:00;;;;;;;;;;;;;;;;;;5068115;28;19919;-59
2022/11/10 02:14:44;;;;;;;;;;;;;;;;;;5067980;28;20397;-59
2022/11/10 02:17:28;;;;;;;;;;;;;;;;;;5069981;28;20313;-59
2022/11/10 02:20:12;;;;;;;;;;;;;;;;;;5069464;28;19959;-59
2022/11/10 02:22:56;;;;;;;;;;;;;;;;;;5068893;28;19923;-59
2022/11/10 02:25:40;;;;;;;;;;;;;;;;;;5071904;28;20361;-59
2022/11/10 02:28:24;;;;;;;;;;;;;;;;;;5075038;28;19958;-58
2022/11/10 02:31:08;;;;;;;;;;;;;;;;;;5112481;27;19927;-58
2022/11/10 02:33:54;;;;;;;;;;;;;;;;;;5108838;27;20343;-58
2022/11/10 02:36:39;;;;;;;;;;;;;;;;;;5106459;27;20006;-58
2022/11/10 02:39:23;;;;;;;;;;;;;;;;;;5111973;27;20444;-57
2022/11/10 02:42:09;;;;;;;;;;;;;;;;;;5107445;28;20058;-58
2022/11/10 02:44:53;;;;;;;;;;;;;;;;;;5107581;27;19918;-58
2022/11/10 02:47:37;;;;;;;;;;;;;;;;;;5110923;27;19939;-58
2022/11/10 02:50:21;;;;;;;;;;;;;;;;;;5109745;27;19918;-58
2022/11/10 02:53:05;;;;;;;;;;;;;;;;;;5084348;28;19923;-60
2022/11/10 02:55:49;;;;;;;;;;;;;;;;;;5098968;27;19919;-59
2022/11/10 02:58:33;;;;;;;;;;;;;;;;;;5099924;27;19919;-59
2022/11/10 03:01:17;;;;;;;;;;;;;;;;;;5099501;27;19934;-60
2022/11/10 03:04:01;;;;;;;;;;;;;;;;;;5107986;27;19982;-57
2022/11/10 03:06:45;;;;;;;;;;;;;;;;;;5108263;27;20345;-58
2022/11/10 03:09:29;;;;;;;;;;;;;;;;;;5107808;27;19919;-57
2022/11/10 03:12:14;;;;;;;;;;;;;;;;;;5101099;27;19927;-58
2022/11/10 03:14:58;;;;;;;;;;;;;;;;;;5101854;27;20036;-59
2022/11/10 03:17:42;;;;;;;;;;;;;;;;;;5100044;27;19918;-58
2022/11/10 03:20:26;;;;;;;;;;;;;;;;;;5103951;27;19994;-58
2022/11/10 03:23:11;;;;;;;;;;;;;;;;;;5100334;27;19943;-57
2022/11/10 03:25:55;;;;;;;;;;;;;;;;;;5101909;27;19934;-58
2022/11/10 03:28:39;;;;;;;;;;;;;;;;;;5104301;27;19966;-59
2022/11/10 03:31:24;;;;;;;;;;;;;;;;;;5098036;27;19965;-57
2022/11/10 03:34:07;;;;;;;;;;;;;;;;;;5100268;28;20054;-60
2022/11/10 03:36:52;;;;;;;;;;;;;;;;;;5099052;28;19972;-59
2022/11/10 03:39:36;;;;;;;;;;;;;;;;;;5102810;27;19973;-59
2022/11/10 03:42:20;;;;;;;;;;;;;;;;;;5101500;27;19959;-59
2022/11/10 03:45:04;;;;;;;;;;;;;;;;;;5108705;27;19993;-59
2022/11/10 03:47:48;;;;;;;;;;;;;;;;;;5103530;27;19919;-59
2022/11/10 03:50:32;;;;;;;;;;;;;;;;;;5105731;27;19922;-59
2022/11/10 03:53:16;;;;;;;;;;;;;;;;;;5101909;27;19979;-59
2022/11/10 03:56:00;;;;;;;;;;;;;;;;;;5102131;27;20354;-59
2022/11/10 03:58:45;;;;;;;;;;;;;;;;;;5100286;27;20003;-57
2022/11/10 04:01:29;;;;;;;;;;;;;;;;;;5107999;27;20018;-58
2022/11/10 04:10:19;;;;;;;;;;;;;;;;;;5100211;27;20074;-58
2022/11/10 04:16:06;;;;;;;;;;;;;;;;;;5104785;27;19919;-58
2022/11/10 04:18:51;;;;;;;;;;;;;;;;;;5100377;28;19919;-58
2022/11/10 04:21:35;;;;;;;;;;;;;;;;;;5099002;27;19926;-58
2022/11/10 04:24:19;;;;;;;;;;;;;;;;;;5097622;27;19960;-58
2022/11/10 04:27:03;;;;;;;;;;;;;;;;;;5093810;28;20000;-58
2022/11/10 04:29:48;;;;;;;;;;;;;;;;;;5100283;27;20284;-59
2022/11/10 04:32:32;;;;;;;;;;;;;;;;;;5100385;27;19918;-59
2022/11/10 04:35:16;;;;;;;;;;;;;;;;;;5098518;28;19931;-58
2022/11/10 04:38:00;;;;;;;;;;;;;;;;;;5097509;27;19962;-58
2022/11/10 04:40:44;;;;;;;;;;;;;;;;;;5108319;27;19950;-58
2022/11/10 04:43:28;;;;;;;;;;;;;;;;;;5105552;28;19968;-58
2022/11/10 04:46:12;;;;;;;;;;;;;;;;;;5101492;28;19926;-58
2022/11/10 04:48:56;;;;;;;;;;;;;;;;;;5108603;28;20360;-58
2022/11/10 04:51:41;;;;;;;;;;;;;;;;;;5109024;28;19919;-58
2022/11/10 04:54:25;;;;;;;;;;;;;;;;;;5109598;28;19940;-58
2022/11/10 04:57:09;;;;;;;;;;;;;;;;;;5106688;28;19962;-58
2022/11/10 04:59:53;;;;;;;;;;;;;;;;;;5105288;28;19918;-58
2022/11/10 05:02:38;;;;;;;;;;;;;;;;;;5101062;28;19986;-58
2022/11/10 05:05:22;;;;;;;;;;;;;;;;;;5109465;27;19933;-58
2022/11/10 05:08:06;;;;;;;;;;;;;;;;;;5109082;27;19919;-59
2022/11/10 05:10:50;;;;;;;;;;;;;;;;;;5111491;27;20328;-59
2022/11/10 05:13:34;;;;;;;;;;;;;;;;;;5109852;27;19926;-59
2022/11/10 05:16:18;;;;;;;;;;;;;;;;;;5110179;27;19964;-59
2022/11/10 05:19:03;;;;;;;;;;;;;;;;;;5112249;27;19930;-58
2022/11/10 05:21:47;;;;;;;;;;;;;;;;;;5107787;27;19922;-59
2022/11/10 05:24:32;;;;;;;;;;;;;;;;;;5109061;27;19923;-59
2022/11/10 05:27:16;;;;;;;;;;;;;;;;;;5108911;27;20285;-59
2022/11/10 05:30:00;;;;;;;;;;;;;;;;;;5103706;27;20335;-59
2022/11/10 05:32:44;;;;;;;;;;;;;;;;;;5104542;27;19920;-58
2022/11/10 05:35:28;;;;;;;;;;;;;;;;;;5107579;27;20384;-59
2022/11/10 05:38:12;;;;;;;;;;;;;;;;;;5109089;27;19919;-59
2022/11/10 05:40:57;;;;;;;;;;;;;;;;;;5109327;27;19923;-58
2022/11/10 05:43:41;;;;;;;;;;;;;;;;;;5108297;27;19918;-58
2022/11/10 05:46:25;;;;;;;;;;;;;;;;;;5108542;27;20045;-58
2022/11/10 05:49:09;;;;;;;;;;;;;;;;;;5108759;27;20442;-59
2022/11/10 05:51:53;;;;;;;;;;;;;;;;;;5103139;27;19919;-58
2022/11/10 05:54:38;;;;;;;;;;;;;;;;;;5114112;27;19970;-59
2022/11/10 05:57:22;;;;;;;;;;;;;;;;;;5117165;27;19934;-58
2022/11/10 06:00:06;;;;;;;;;;;;;;;;;;5101338;27;19965;-58
2022/11/10 06:02:51;;;;;;;;;;;;;;;;;;5106826;27;19926;-58
2022/11/10 06:05:35;;;;;;;;;;;;;;;;;;5097139;28;19927;-57
2022/11/10 06:08:19;;;;;;;;;;;;;;;;;;5113286;27;19964;-58
2022/11/10 06:11:04;;;;;;;;;;;;;;;;;;5115786;27;20356;-58
2022/11/10 06:13:48;;;;;;;;;;;;;;;;;;5112699;28;20378;-58
2022/11/10 06:16:32;;;;;;;;;;;;;;;;;;5109245;27;19974;-57
2022/11/10 06:19:17;;;;;;;;;;;;;;;;;;5106809;27;19966;-58
2022/11/10 06:22:01;;;;;;;;;;;;;;;;;;5106753;27;19990;-58
2022/11/10 06:24:45;;;;;;;;;;;;;;;;;;5109029;27;19977;-59
2022/11/10 06:27:29;;;;;;;;;;;;;;;;;;5105046;27;19922;-58
2022/11/10 06:30:14;;;;;;;;;;;;;;;;;;5112182;27;19931;-58
2022/11/10 06:32:58;;;;;;;;;;;;;;;;;;5115456;27;19964;-57
2022/11/10 06:35:42;;;;;;;;;;;;;;;;;;5116058;27;19927;-56
2022/11/10 06:38:26;;;;;;;;;;;;;;;;;;5125440;27;19922;-57
2022/11/10 06:41:10;;;;;;;;;;;;;;;;;;5119769;27;19990;-57
2022/11/10 06:43:54;;;;;;;;;;;;;;;;;;5106449;27;20053;-56
2022/11/10 06:46:39;;;;;;;;;;;;;;;;;;5122337;27;19930;-57
2022/11/10 06:49:23;;;;;;;;;;;;;;;;;;5116293;27;19980;-58
2022/11/10 06:52:06;;;;;;;;;;;;;;;;;;5128732;27;20410;-57
2022/11/10 06:54:50;;;;;;;;;;;;;;;;;;5128840;27;19992;-57
2022/11/10 06:57:35;;;;;;;;;;;;;;;;;;5118895;27;19961;-58
2022/11/10 07:00:19;;;;;;;;;;;;;;;;;;5129412;27;20272;-58
2022/11/10 07:03:04;;;;;;;;;;;;;;;;;;5120340;27;19918;-58
2022/11/10 07:05:48;;;;;;;;;;;;;;;;;;5103772;27;20018;-58
2022/11/10 07:08:32;;;;;;;;;;;;;;;;;;5127366;27;19922;-58
2022/11/10 07:11:16;;;;;;;;;;;;;;;;;;5118522;27;19918;-58
2022/11/10 07:14:00;;;;;;;;;;;;;;;;;;5129024;27;19972;-57
2022/11/10 07:16:44;;;;;;;;;;;;;;;;;;5126981;27;19969;-58
2022/11/10 07:19:28;;;;;;;;;;;;;;;;;;5117776;27;20347;-58
2022/11/10 07:22:12;;;;;;;;;;;;;;;;;;5127162;27;19918;-57
2022/11/10 07:24:56;;;;;;;;;;;;;;;;;;5129407;27;19934;-58
2022/11/10 07:27:40;;;;;;;;;;;;;;;;;;5101522;27;19937;-58
2022/11/10 07:30:25;;;;;;;;;;;;;;;;;;5124839;27;19927;-58
2022/11/10 07:33:09;;;;;;;;;;;;;;;;;;5115204;27;20045;-58
2022/11/10 07:35:53;;;;;;;;;;;;;;;;;;5099650;27;19918;-58
2022/11/10 07:38:37;;;;;;;;;;;;;;;;;;5125378;27;20372;-58
2022/11/10 07:41:21;;;;;;;;;;;;;;;;;;5118133;27;20285;-58
2022/11/10 07:44:05;;;;;;;;;;;;;;;;;;5128153;27;19919;-58
2022/11/10 07:46:49;;;;;;;;;;;;;;;;;;5127783;27;19957;-58
2022/11/10 07:49:33;;;;;;;;;;;;;;;;;;5116396;27;20383;-56
2022/11/10 07:52:18;;;;;;;;;;;;;;;;;;5113960;27;20008;-58
2022/11/10 07:55:03;;;;;;;;;;;;;;;;;;5113941;27;20334;-57
2022/11/10 07:57:47;;;;;;;;;;;;;;;;;;5116492;27;19964;-57
2022/11/10 08:00:31;;;;;;;;;;;;;;;;;;5115410;27;19962;-56
2022/11/10 08:03:15;;;;;;;;;;;;;;;;;;5115386;27;20292;-57
2022/11/10 08:05:59;;;;;;;;;;;;;;;;;;5117975;27;19973;-57
2022/11/10 08:08:44;;;;;;;;;;;;;;;;;;5118929;27;20322;-58
2022/11/10 08:11:27;;;;;;;;;;;;;;;;;;5117529;27;19927;-58
2022/11/10 08:14:12;;;;;;;;;;;;;;;;;;5126309;27;20028;-57
2022/11/10 08:16:56;;;;;;;;;;;;;;;;;;5128370;27;19961;-58
2022/11/10 08:19:40;;;;;;;;;;;;;;;;;;5100420;27;19918;-57
2022/11/10 08:22:24;;;;;;;;;;;;;;;;;;5124430;27;19934;-58
2022/11/10 08:25:09;;;;;;;;;;;;;;;;;;5130236;27;19918;-58
2022/11/10 08:27:53;;;;;;;;;;;;;;;;;;5104419;27;19918;-58
2022/11/10 08:30:37;;;;;;;;;;;;;;;;;;5122005;27;20011;-58
2022/11/10 08:33:21;;;;;;;;;;;;;;;;;;5130009;27;19921;-57
2022/11/10 08:36:06;;;;;;;;;;;;;;;;;;5120734;27;19922;-57
2022/11/10 08:38:49;;;;;;;;;;;;;;;;;;5119305;27;19933;-57
2022/11/10 08:41:33;;;;;;;;;;;;;;;;;;5117146;28;19969;-58
2022/11/10 08:44:18;;;;;;;;;;;;;;;;;;5125111;27;19969;-57
2022/11/10 08:47:02;;;;;;;;;;;;;;;;;;5122524;27;19918;-58
2022/11/10 08:49:46;;;;;;;;;;;;;;;;;;5101485;27;19925;-58
2022/11/10 08:52:30;;;;;;;;;;;;;;;;;;5123064;27;20308;-58
2022/11/10 08:55:15;;;;;;;;;;;;;;;;;;5130157;28;20392;-58
2022/11/10 08:57:59;;;;;;;;;;;;;;;;;;5113595;28;19919;-58
2022/11/10 09:00:44;;;;;;;;;;;;;;;;;;5125802;28;19923;-58
2022/11/10 09:03:27;;;;;;;;;;;;;;;;;;5114499;28;20007;-58
2022/11/10 09:06:11;;;;;;;;;;;;;;;;;;5119285;28;20311;-58
2022/11/10 09:08:56;;;;;;;;;;;;;;;;;;5121847;28;19934;-58
2022/11/10 09:11:40;;;;;;;;;;;;;;;;;;5100306;28;20014;-58
2022/11/10 09:14:24;;;;;;;;;;;;;;;;;;5112581;28;19970;-57
2022/11/10 09:17:08;;;;;;;;;;;;;;;;;;5124827;28;19922;-56
2022/11/10 09:19:52;;;;;;;;;;;;;;;;;;5102978;28;20403;-56
2022/11/10 09:22:36;;;;;;;;;;;;;;;;;;5121741;28;19919;-57
2022/11/10 09:25:21;;;;;;;;;;;;;;;;;;5129953;28;19933;-57
2022/11/10 09:28:05;;;;;;;;;;;;;;;;;;5120282;28;20284;-57
2022/11/10 09:30:49;;;;;;;;;;;;;;;;;;5112820;28;19965;-57
2022/11/10 09:33:33;;;;;;;;;;;;;;;;;;5125567;28;19973;-58
2022/11/10 09:36:18;;;;;;;;;;;;;;;;;;5124444;28;20335;-58
2022/11/10 09:39:02;;;;;;;;;;;;;;;;;;5123055;28;20261;-57
2022/11/10 09:41:47;;;;;;;;;;;;;;;;;;5101930;28;20024;-58
2022/11/10 09:44:31;;;;;;;;;;;;;;;;;;5122543;28;19935;-58
2022/11/10 09:47:14;;;;;;;;;;;;;;;;;;5130026;28;19961;-58
2022/11/10 09:49:59;;;;;;;;;;;;;;;;;;5120988;27;19957;-57
2022/11/10 09:52:43;;;;;;;;;;;;;;;;;;5124475;27;19923;-57
2022/11/10 09:55:27;;;;;;;;;;;;;;;;;;5133348;27;20428;-58
2022/11/10 09:58:11;;;;;;;;;;;;;;;;;;5124851;27;19918;-58
2022/11/10 10:00:56;;;;;;;;;;;;;;;;;;5122874;27;19919;-58
2022/11/10 10:03:40;;;;;;;;;;;;;;;;;;5103523;27;20049;-57
2022/11/10 10:06:24;;;;;;;;;;;;;;;;;;5126475;27;20064;-57
2022/11/10 10:09:10;;;;;;;;;;;;;;;;;;5132512;27;19919;-57
2022/11/10 10:11:55;;;;;;;;;;;;;;;;;;5107416;27;19918;-57
2022/11/10 10:14:38;;;;;;;;;;;;;;;;;;5124314;27;20372;-57
2022/11/10 10:17:22;;;;;;;;;;;;;;;;;;5133326;27;19980;-57
2022/11/10 10:20:07;;;;;;;;;;;;;;;;;;5123714;27;19935;-57
2022/11/10 10:22:52;;;;;;;;;;;;;;;;;;5122813;27;19919;-57
2022/11/10 10:25:37;;;;;;;;;;;;;;;;;;5131970;27;20242;-57
2022/11/10 10:28:21;;;;;;;;;;;;;;;;;;5123506;27;19981;-57
2022/11/10 10:31:05;;;;;;;;;;;;;;;;;;5118863;27;19972;-57
2022/11/10 10:33:50;;;;;;;;;;;;;;;;;;5088302;27;19968;-57
2022/11/10 10:36:33;;;;;;;;;;;;;;;;;;5123064;27;19962;-57
2022/11/10 10:39:18;;;;;;;;;;;;;;;;;;5130917;27;19972;-57
2022/11/10 10:42:02;;;;;;;;;;;;;;;;;;5122698;27;19918;-57
2022/11/10 10:44:46;;;;;;;;;;;;;;;;;;5123246;27;19918;-57
2022/11/10 10:47:30;;;;;;;;;;;;;;;;;;5132713;27;19923;-58
2022/11/10 10:50:15;;;;;;;;;;;;;;;;;;5124418;27;19978;-58
2022/11/10 10:52:59;;;;;;;;;;;;;;;;;;5121289;27;19950;-58
2022/11/10 10:55:43;;;;;;;;;;;;;;;;;;5103161;27;19970;-58
2022/11/10 10:58:27;;;;;;;;;;;;;;;;;;5125548;27;19922;-58
2022/11/10 11:01:12;;;;;;;;;;;;;;;;;;5131490;27;19918;-58
2022/11/10 11:03:56;;;;;;;;;;;;;;;;;;5106839;27;20380;-57
2022/11/10 11:06:40;;;;;;;;;;;;;;;;;;5123297;27;19956;-58
2022/11/10 11:09:24;;;;;;;;;;;;;;;;;;5132350;27;19918;-58
2022/11/10 11:12:08;;;;;;;;;;;;;;;;;;5122655;27;19930;-58
2022/11/10 11:14:53;;;;;;;;;;;;;;;;;;5121454;27;19980;-58
2022/11/10 11:17:37;;;;;;;;;;;;;;;;;;5132164;27;19930;-58
2022/11/10 11:20:21;;;;;;;;;;;;;;;;;;5124303;27;19964;-58
2022/11/10 11:23:05;;;;;;;;;;;;;;;;;;5119932;27;19919;-58
2022/11/10 11:25:50;;;;;;;;;;;;;;;;;;5104791;27;20265;-58
2022/11/10 11:28:34;;;;;;;;;;;;;;;;;;5123794;27;19981;-58
2022/11/10 11:31:19;;;;;;;;;;;;;;;;;;5131940;27;19953;-58
2022/11/10 11:34:03;;;;;;;;;;;;;;;;;;5121720;27;19972;-58
2022/11/10 11:36:47;;;;;;;;;;;;;;;;;;5121913;27;19926;-57
2022/11/10 11:39:31;;;;;;;;;;;;;;;;;;5131833;27;19958;-58
2022/11/10 11:42:15;;;;;;;;;;;;;;;;;;5123348;27;19968;-58
2022/11/10 11:45:00;;;;;;;;;;;;;;;;;;5120305;27;19919;-57
2022/11/10 11:47:44;;;;;;;;;;;;;;;;;;5102921;27;19950;-57
2022/11/10 11:50:28;;;;;;;;;;;;;;;;;;5124303;27;20372;-58
2022/11/10 11:53:13;;;;;;;;;;;;;;;;;;5131485;27;19961;-58
2022/11/10 11:55:57;;;;;;;;;;;;;;;;;;5106272;27;20042;-58
2022/11/10 11:58:41;;;;;;;;;;;;;;;;;;5122234;27;19922;-58
2022/11/10 12:01:25;;;;;;;;;;;;;;;;;;5131268;27;19971;-58
2022/11/10 12:04:09;;;;;;;;;;;;;;;;;;5122039;27;20011;-58
2022/11/10 12:06:53;;;;;;;;;;;;;;;;;;5120583;27;20376;-58
2022/11/10 12:09:37;;;;;;;;;;;;;;;;;;5131260;27;19922;-58
2022/11/10 12:12:21;;;;;;;;;;;;;;;;;;5123602;27;19958;-58
2022/11/10 12:15:05;;;;;;;;;;;;;;;;;;5118646;27;19941;-58
2022/11/10 12:17:50;;;;;;;;;;;;;;;;;;5088449;27;20345;-57
2022/11/10 12:20:34;;;;;;;;;;;;;;;;;;5123126;27;19919;-57
2022/11/10 12:23:18;;;;;;;;;;;;;;;;;;5130959;27;20459;-58
2022/11/10 12:26:02;;;;;;;;;;;;;;;;;;5120724;27;19918;-58
2022/11/10 12:28:46;;;;;;;;;;;;;;;;;;5121068;27;20006;-57
2022/11/10 12:31:30;;;;;;;;;;;;;;;;;;5130839;27;19922;-58
2022/11/10 12:34:13;;;;;;;;;;;;;;;;;;5122105;27;20330;-59
2022/11/10 12:36:58;;;;;;;;;;;;;;;;;;5119431;27;19935;-58
2022/11/10 12:39:42;;;;;;;;;;;;;;;;;;5115728;27;20399;-59
2022/11/10 12:42:26;;;;;;;;;;;;;;;;;;5123688;27;20486;-58
2022/11/10 12:45:11;;;;;;;;;;;;;;;;;;5130431;27;19922;-58
2022/11/10 12:47:55;;;;;;;;;;;;;;;;;;5104855;27;20002;-58
2022/11/10 12:50:39;;;;;;;;;;;;;;;;;;5121892;27;19965;-58
2022/11/10 12:53:24;;;;;;;;;;;;;;;;;;5130529;28;19918;-59
2022/11/10 12:56:08;;;;;;;;;;;;;;;;;;5121320;28;19927;-58
2022/11/10 12:58:52;;;;;;;;;;;;;;;;;;5120274;28;20307;-58
2022/11/10 13:01:36;;;;;;;;;;;;;;;;;;5123073;28;19918;-59
2022/11/10 13:04:20;;;;;;;;;;;;;;;;;;5124422;28;19964;-59
2022/11/10 13:07:04;;;;;;;;;;;;;;;;;;5117788;28;20320;-59
2022/11/10 13:09:49;;;;;;;;;;;;;;;;;;5111615;28;20393;-58
2022/11/10 13:12:33;;;;;;;;;;;;;;;;;;5109025;28;20011;-58
2022/11/10 13:15:17;;;;;;;;;;;;;;;;;;5112150;28;20045;-58
2022/11/10 13:18:01;;;;;;;;;;;;;;;;;;5109930;28;19918;-58
2022/11/10 13:20:45;;;;;;;;;;;;;;;;;;5110633;28;19923;-58
2022/11/10 13:23:29;;;;;;;;;;;;;;;;;;5111330;28;19923;-59
2022/11/10 13:26:14;;;;;;;;;;;;;;;;;;5115934;28;19933;-58
2022/11/10 13:28:58;;;;;;;;;;;;;;;;;;5116770;27;19927;-58
2022/11/10 13:31:42;;;;;;;;;;;;;;;;;;5111923;27;20305;-59
2022/11/10 13:34:27;;;;;;;;;;;;;;;;;;5117462;27;20107;-59
2022/11/10 13:37:12;;;;;;;;;;;;;;;;;;5115266;27;19918;-59
2022/11/10 13:39:56;;;;;;;;;;;;;;;;;;5115392;27;20273;-59
2022/11/10 13:42:40;;;;;;;;;;;;;;;;;;5116629;27;19918;-58
2022/11/10 13:45:24;;;;;;;;;;;;;;;;;;5118764;27;19919;-57
2022/11/10 13:48:09;;;;;;;;;;;;;;;;;;5116440;27;19988;-58
2022/11/10 13:50:54;;;;;;;;;;;;;;;;;;5115584;27;19934;-57
2022/11/10 13:53:38;;;;;;;;;;;;;;;;;;5119413;27;20034;-57
2022/11/10 13:56:22;;;;;;;;;;;;;;;;;;5116835;27;19935;-58
2022/11/10 13:59:06;;;;;;;;;;;;;;;;;;5128154;27;19964;-58
2022/11/10 14:01:50;;;;;;;;;;;;;;;;;;5106350;27;19934;-58
2022/11/10 14:04:34;;;;;;;;;;;;;;;;;;5125740;27;19957;-58
2022/11/10 14:07:18;;;;;;;;;;;;;;;;;;5124510;27;19918;-58
2022/11/10 14:10:02;;;;;;;;;;;;;;;;;;5109697;27;19936;-58
2022/11/10 14:12:46;;;;;;;;;;;;;;;;;;5123806;27;19922;-58
2022/11/10 14:15:30;;;;;;;;;;;;;;;;;;5133109;27;19926;-58
2022/11/10 14:18:15;;;;;;;;;;;;;;;;;;5125025;27;19975;-58
2022/11/10 14:20:59;;;;;;;;;;;;;;;;;;5122052;27;19918;-58
2022/11/10 14:23:44;;;;;;;;;;;;;;;;;;5104197;27;19957;-58
2022/11/10 14:26:28;;;;;;;;;;;;;;;;;;5126106;27;20417;-59
2022/11/10 14:29:12;;;;;;;;;;;;;;;;;;5132675;27;19927;-58
2022/11/10 14:31:56;;;;;;;;;;;;;;;;;;5107668;27;19964;-58
2022/11/10 14:34:41;;;;;;;;;;;;;;;;;;5123843;27;19926;-58
2022/11/10 14:37:24;;;;;;;;;;;;;;;;;;5125011;27;20315;-58
2022/11/10 14:40:08;;;;;;;;;;;;;;;;;;5128672;27;19922;-58
2022/11/10 14:42:52;;;;;;;;;;;;;;;;;;5129792;27;19918;-58
2022/11/10 14:45:39;;;;;;;;;;;;;;;;;;5119302;27;20407;-58
2022/11/10 14:48:24;;;;;;;;;;;;;;;;;;5126283;27;20273;-59
2022/11/10 14:51:08;;;;;;;;;;;;;;;;;;5131955;27;19998;-59
2022/11/10 14:53:52;;;;;;;;;;;;;;;;;;5105768;27;20018;-59
2022/11/10 14:56:37;;;;;;;;;;;;;;;;;;5123920;27;19957;-57
2022/11/10 14:59:21;;;;;;;;;;;;;;;;;;5132523;27;19919;-59
2022/11/10 15:02:05;;;;;;;;;;;;;;;;;;5122669;27;19918;-57
2022/11/10 15:04:50;;;;;;;;;;;;;;;;;;5122523;27;20376;-57
2022/11/10 15:07:34;;;;;;;;;;;;;;;;;;5127287;27;19976;-57
2022/11/10 15:10:20;;;;;;;;;;;;;;;;;;5126874;27;20363;-59
2022/11/10 15:13:04;;;;;;;;;;;;;;;;;;5131120;27;19918;-57
2022/11/10 15:15:48;;;;;;;;;;;;;;;;;;5104766;27;19996;-57
2022/11/10 15:18:33;;;;;;;;;;;;;;;;;;5124553;27;20288;-57
2022/11/10 15:21:17;;;;;;;;;;;;;;;;;;5132257;27;19939;-59
2022/11/10 15:24:02;;;;;;;;;;;;;;;;;;5121888;27;19919;-57
2022/11/10 15:26:46;;;;;;;;;;;;;;;;;;5122455;27;19923;-58
2022/11/10 15:29:31;;;;;;;;;;;;;;;;;;5110155;28;19965;-58
2022/11/10 15:32:15;;;;;;;;;;;;;;;;;;5103093;28;19973;-58
2022/11/10 15:34:59;;;;;;;;;;;;;;;;;;5100017;28;20300;-58
2022/11/10 15:37:43;;;;;;;;;;;;;;;;;;5089890;28;20281;-58
2022/11/10 15:40:29;;;;;;;;;;;;;;;;;;5104373;28;20365;-58
2022/11/10 15:43:13;;;;;;;;;;;;;;;;;;5111140;28;19919;-58
2022/11/10 15:45:57;;;;;;;;;;;;;;;;;;5086257;28;20645;-58
2022/11/10 15:48:42;;;;;;;;;;;;;;;;;;5098232;28;19922;-58
2022/11/10 15:51:26;;;;;;;;;;;;;;;;;;5097780;28;19937;-58
2022/11/10 15:54:11;;;;;;;;;;;;;;;;;;5106342;28;19930;-58
2022/11/10 15:56:55;;;;;;;;;;;;;;;;;;5108379;28;19919;-58
2022/11/10 15:59:40;;;;;;;;;;;;;;;;;;5081069;28;20311;-58
2022/11/10 16:02:24;;;;;;;;;;;;;;;;;;5095541;28;19958;-59
2022/11/10 16:05:08;;;;;;;;;;;;;;;;;;5095012;28;20390;-58
2022/11/10 16:07:52;;;;;;;;;;;;;;;;;;5098085;28;19919;-58
2022/11/10 16:10:37;;;;;;;;;;;;;;;;;;5102601;28;19919;-58
2022/11/10 16:13:21;;;;;;;;;;;;;;;;;;5110681;28;19972;-58
2022/11/10 16:16:05;;;;;;;;;;;;;;;;;;5101321;28;20392;-58
2022/11/10 16:18:49;;;;;;;;;;;;;;;;;;5113155;28;19922;-58
2022/11/10 16:21:34;;;;;;;;;;;;;;;;;;5092929;28;19919;-58
2022/11/10 16:24:18;;;;;;;;;;;;;;;;;;5093172;28;19919;-58
2022/11/10 16:27:02;;;;;;;;;;;;;;;;;;5092948;28;20060;-58
2022/11/10 16:29:47;;;;;;;;;;;;;;;;;;5104000;28;20420;-58
2022/11/10 16:32:31;;;;;;;;;;;;;;;;;;5111793;28;19965;-58
2022/11/10 16:35:15;;;;;;;;;;;;;;;;;;5114870;27;19931;-58
2022/11/10 16:37:59;;;;;;;;;;;;;;;;;;5112501;28;19939;-58
2022/11/10 16:40:43;;;;;;;;;;;;;;;;;;5106230;27;19957;-58
2022/11/10 16:43:27;;;;;;;;;;;;;;;;;;5111606;27;20481;-58
2022/11/10 16:46:10;;;;;;;;;;;;;;;;;;5111662;27;20372;-58
2022/11/10 16:48:54;;;;;;;;;;;;;;;;;;5113771;27;20057;-59
2022/11/10 16:51:39;;;;;;;;;;;;;;;;;;5126814;27;20422;-58
2022/11/10 16:54:23;;;;;;;;;;;;;;;;;;5111506;28;19965;-57
2022/11/10 16:57:08;;;;;;;;;;;;;;;;;;5114246;28;19999;-58
2022/11/10 16:59:52;;;;;;;;;;;;;;;;;;5111273;28;19919;-58
2022/11/10 17:02:38;;;;;;;;;;;;;;;;;;5115259;28;19921;-59
2022/11/10 17:05:22;;;;;;;;;;;;;;;;;;5109914;28;20377;-59
2022/11/10 17:08:06;;;;;;;;;;;;;;;;;;5112831;28;20473;-58
2022/11/10 17:10:50;;;;;;;;;;;;;;;;;;5108076;28;19919;-58
2022/11/10 17:13:35;;;;;;;;;;;;;;;;;;5115039;28;19942;-59
2022/11/10 17:16:19;;;;;;;;;;;;;;;;;;5115181;28;20222;-57
2022/11/10 17:19:03;;;;;;;;;;;;;;;;;;5117037;28;20207;-58
2022/11/10 17:21:47;;;;;;;;;;;;;;;;;;5103302;28;19961;-58
2022/11/10 17:24:31;;;;;;;;;;;;;;;;;;5116386;28;20276;-58
2022/11/10 17:27:16;;;;;;;;;;;;;;;;;;5115680;28;19919;-58
2022/11/10 17:30:00;;;;;;;;;;;;;;;;;;5116696;28;19942;-57
2022/11/10 17:32:44;;;;;;;;;;;;;;;;;;5116938;28;20036;-57
2022/11/10 17:35:28;;;;;;;;;;;;;;;;;;5116976;28;19926;-57
2022/11/10 17:38:12;;;;;;;;;;;;;;;;;;5116050;28;19918;-57
2022/11/10 17:40:57;;;;;;;;;;;;;;;;;;5115242;28;20349;-57
2022/11/10 17:43:41;;;;;;;;;;;;;;;;;;5117156;28;19918;-58
2022/11/10 17:46:25;;;;;;;;;;;;;;;;;;5110648;28;19919;-57
2022/11/10 17:49:09;;;;;;;;;;;;;;;;;;5116067;28;19939;-57
2022/11/10 17:51:53;;;;;;;;;;;;;;;;;;5112940;28;19919;-57
2022/11/10 17:54:37;;;;;;;;;;;;;;;;;;5111450;28;19927;-57
2022/11/10 17:57:21;;;;;;;;;;;;;;;;;;5114830;28;19993;-57
2022/11/10 18:00:05;;;;;;;;;;;;;;;;;;5103539;28;19950;-57
2022/11/10 18:02:49;;;;;;;;;;;;;;;;;;5116509;28;20395;-57
2022/11/10 18:05:33;;;;;;;;;;;;;;;;;;5119034;28;20375;-57
2022/11/10 18:08:17;;;;;;;;;;;;;;;;;;5113211;28;19919;-58
2022/11/10 18:11:01;;;;;;;;;;;;;;;;;;5117318;28;19927;-57
2022/11/10 18:13:46;;;;;;;;;;;;;;;;;;5128636;27;19956;-58
2022/11/10 18:16:30;;;;;;;;;;;;;;;;;;5127334;27;20270;-57
2022/11/10 18:19:15;;;;;;;;;;;;;;;;;;5120122;27;19958;-59
2022/11/10 18:21:59;;;;;;;;;;;;;;;;;;5118845;27;19922;-59
2022/11/10 18:24:43;;;;;;;;;;;;;;;;;;5123118;27;19930;-58
2022/11/10 18:27:27;;;;;;;;;;;;;;;;;;5119528;27;19918;-58
2022/11/10 18:30:11;;;;;;;;;;;;;;;;;;5106251;27;19927;-58
2022/11/10 18:32:56;;;;;;;;;;;;;;;;;;5119754;27;19964;-57
2022/11/10 18:35:40;;;;;;;;;;;;;;;;;;5126234;27;20338;-58
2022/11/10 18:38:24;;;;;;;;;;;;;;;;;;5121741;27;19972;-57
2022/11/10 18:44:11;;;;;;;;;;;;;;;;;;5107310;27;19923;-57
2022/11/10 18:46:55;;;;;;;;;;;;;;;;;;5119599;27;20369;-58
2022/11/10 18:49:40;;;;;;;;;;;;;;;;;;5126534;27;20004;-58
2022/11/10 18:52:24;;;;;;;;;;;;;;;;;;5127186;27;20019;-57
2022/11/10 18:55:08;;;;;;;;;;;;;;;;;;5115504;27;19966;-57